Time;durP1;ratioP1;P1;durP2;ratioP2;P2;SDS_P1;SDS_P2;PMS_P1;PMS_P2;Temp;Humidity;BMP_temperature;BMP_pressure;BME280_temperature;BME280_humidity;BME280_pressure;Samples;Min_cycle;Max_cycle;Signal;HPM_P1;HPM_P2
2022/05/12 00:00:30;;;;;;;;;;;18.60;57.00;;;;;;486803;245;1178;-77
2022/05/12 00:02:31;;;;;;;;;;;18.50;57.00;;;;;;486776;245;1158;-77
2022/05/12 00:04:32;;;;;;;;;;;18.50;57.10;;;;;;486802;245;1062;-77
2022/05/12 00:06:35;;;;;;;;;;;18.50;57.10;;;;;;486776;245;1120;-77
2022/05/12 00:08:35;;;;;;;;;;;18.50;57.20;;;;;;486678;245;1393;-77
2022/05/12 00:10:36;;;;;;;;;;;18.50;57.20;;;;;;486793;245;1107;-77
2022/05/12 00:12:37;;;;;;;;;;;18.50;57.30;;;;;;486753;245;1057;-77
2022/05/12 00:14:39;;;;;;;;;;;18.50;57.40;;;;;;486834;245;1522;-77
2022/05/12 00:16:40;;;;;;;;;;;18.50;57.40;;;;;;486841;245;2135;-77
2022/05/12 00:18:41;;;;;;;;;;;18.50;57.40;;;;;;486820;245;1125;-77
2022/05/12 00:20:43;;;;;;;;;;;18.40;57.40;;;;;;486924;245;1225;-77
2022/05/12 00:22:44;;;;;;;;;;;18.40;57.40;;;;;;486943;245;1101;-77
2022/05/12 00:24:45;;;;;;;;;;;18.50;57.50;;;;;;486855;245;1065;-77
2022/05/12 00:26:47;;;;;;;;;;;18.40;57.50;;;;;;486707;245;1102;-76
2022/05/12 00:28:48;;;;;;;;;;;18.50;57.40;;;;;;486856;245;1098;-77
2022/05/12 00:30:49;;;;;;;;;;;18.40;57.50;;;;;;486798;245;1260;-77
2022/05/12 00:32:51;;;;;;;;;;;18.40;57.50;;;;;;487002;245;1066;-76
2022/05/12 00:34:52;;;;;;;;;;;18.40;57.50;;;;;;486828;245;1152;-76
2022/05/12 00:36:53;;;;;;;;;;;18.40;57.50;;;;;;486754;245;2166;-77
2022/05/12 00:38:55;;;;;;;;;;;18.40;57.50;;;;;;486933;245;1112;-77
2022/05/12 00:40:56;;;;;;;;;;;18.30;57.60;;;;;;487043;245;1072;-77
2022/05/12 00:42:57;;;;;;;;;;;18.30;57.60;;;;;;486891;245;1225;-77
2022/05/12 00:44:59;;;;;;;;;;;18.40;57.60;;;;;;486875;245;1252;-77
2022/05/12 00:47:00;;;;;;;;;;;18.40;57.60;;;;;;486941;245;1260;-76
2022/05/12 00:49:01;;;;;;;;;;;18.30;57.50;;;;;;486800;245;1152;-77
2022/05/12 00:51:03;;;;;;;;;;;18.30;57.60;;;;;;486858;245;1075;-77
2022/05/12 00:53:04;;;;;;;;;;;18.30;57.60;;;;;;486923;245;1069;-77
2022/05/12 00:55:05;;;;;;;;;;;18.30;57.70;;;;;;486850;243;1224;-77
2022/05/12 00:57:07;;;;;;;;;;;18.30;57.70;;;;;;486785;245;2233;-77
2022/05/12 00:59:08;;;;;;;;;;;18.20;57.60;;;;;;486839;245;1136;-77
2022/05/12 01:01:09;;;;;;;;;;;18.30;57.80;;;;;;486881;245;1120;-77
2022/05/12 01:03:11;;;;;;;;;;;18.30;57.70;;;;;;486839;245;1152;-77
2022/05/12 01:05:12;;;;;;;;;;;18.30;57.60;;;;;;486954;245;1253;-76
2022/05/12 01:07:13;;;;;;;;;;;18.20;57.50;;;;;;486877;245;1096;-76
2022/05/12 01:09:15;;;;;;;;;;;18.20;57.60;;;;;;486829;245;1142;-77
2022/05/12 01:11:16;;;;;;;;;;;18.30;57.50;;;;;;486829;245;1126;-77
2022/05/12 01:13:17;;;;;;;;;;;18.30;57.50;;;;;;486810;245;1081;-77
2022/05/12 01:15:19;;;;;;;;;;;18.20;57.40;;;;;;486823;241;1241;-76
2022/05/12 01:17:20;;;;;;;;;;;18.30;57.50;;;;;;486776;245;2240;-77
2022/05/12 01:19:21;;;;;;;;;;;18.30;57.40;;;;;;486842;245;963;-77
2022/05/12 01:21:24;;;;;;;;;;;18.30;57.40;;;;;;486711;245;1229;-76
2022/05/12 01:23:25;;;;;;;;;;;18.20;57.40;;;;;;486761;245;1056;-76
2022/05/12 01:25:26;;;;;;;;;;;18.30;57.30;;;;;;486831;245;1036;-76
2022/05/12 01:27:30;;;;;;;;;;;18.20;57.20;;;;;;486903;245;1043;-76
2022/05/12 01:29:29;;;;;;;;;;;18.20;57.20;;;;;;486681;245;1374;-76
2022/05/12 01:31:30;;;;;;;;;;;18.20;57.20;;;;;;486836;245;1240;-77
2022/05/12 01:33:32;;;;;;;;;;;18.20;57.30;;;;;;486942;245;1100;-76
2022/05/12 01:35:33;;;;;;;;;;;18.20;57.20;;;;;;486749;245;1159;-76
2022/05/12 01:37:35;;;;;;;;;;;18.20;57.20;;;;;;486805;245;2135;-76
2022/05/12 01:39:36;;;;;;;;;;;18.20;57.10;;;;;;486746;245;1475;-77
2022/05/12 01:41:37;;;;;;;;;;;18.20;57.20;;;;;;486797;245;1286;-77
2022/05/12 01:43:38;;;;;;;;;;;18.20;57.10;;;;;;486814;245;1137;-77
2022/05/12 01:45:40;;;;;;;;;;;18.20;57.10;;;;;;486881;245;1215;-77
2022/05/12 01:47:41;;;;;;;;;;;18.20;57.10;;;;;;486975;245;1086;-77
2022/05/12 01:49:42;;;;;;;;;;;18.20;57.00;;;;;;486844;245;1297;-77
2022/05/12 01:51:44;;;;;;;;;;;18.20;57.10;;;;;;486850;245;1101;-77
2022/05/12 01:53:46;;;;;;;;;;;18.20;57.00;;;;;;486898;245;1109;-77
2022/05/12 01:55:48;;;;;;;;;;;18.20;57.00;;;;;;486764;245;1104;-76
2022/05/12 01:57:49;;;;;;;;;;;18.20;57.10;;;;;;486837;245;2178;-77
2022/05/12 01:59:50;;;;;;;;;;;18.10;57.00;;;;;;486959;245;1218;-77
2022/05/12 02:01:52;;;;;;;;;;;18.20;57.10;;;;;;486804;245;1176;-77
2022/05/12 02:03:53;;;;;;;;;;;18.10;57.00;;;;;;486813;245;1472;-76
2022/05/12 02:05:54;;;;;;;;;;;18.20;57.10;;;;;;486803;245;1040;-76
2022/05/12 02:07:56;;;;;;;;;;;18.10;57.00;;;;;;486866;245;1153;-77
2022/05/12 02:09:57;;;;;;;;;;;18.10;57.00;;;;;;486865;245;1020;-77
2022/05/12 02:11:58;;;;;;;;;;;18.20;57.10;;;;;;486888;245;1030;-77
2022/05/12 02:14:00;;;;;;;;;;;18.10;57.00;;;;;;486943;245;945;-77
2022/05/12 02:16:01;;;;;;;;;;;18.10;57.00;;;;;;486950;245;1309;-76
2022/05/12 02:18:02;;;;;;;;;;;18.10;57.00;;;;;;486935;245;2186;-76
2022/05/12 02:20:04;;;;;;;;;;;18.10;57.00;;;;;;486970;245;1067;-76
2022/05/12 02:22:06;;;;;;;;;;;18.10;57.00;;;;;;486950;245;1062;-76
2022/05/12 02:24:06;;;;;;;;;;;18.10;57.00;;;;;;486876;245;1503;-77
2022/05/12 02:26:08;;;;;;;;;;;18.10;57.10;;;;;;486990;243;1179;-77
2022/05/12 02:28:09;;;;;;;;;;;18.10;57.10;;;;;;486953;245;1118;-77
2022/05/12 02:30:10;;;;;;;;;;;18.10;57.10;;;;;;486975;245;1133;-76
2022/05/12 02:32:12;;;;;;;;;;;18.10;57.10;;;;;;487003;245;1197;-76
2022/05/12 02:34:14;;;;;;;;;;;18.10;57.10;;;;;;486943;245;1125;-76
2022/05/12 02:36:14;;;;;;;;;;;18.10;57.00;;;;;;486824;243;1202;-77
2022/05/12 02:38:16;;;;;;;;;;;18.10;57.00;;;;;;487066;245;2179;-77
2022/05/12 02:40:17;;;;;;;;;;;18.10;57.10;;;;;;486911;245;1066;-77
2022/05/12 02:42:18;;;;;;;;;;;18.00;57.10;;;;;;487075;245;1116;-77
2022/05/12 02:44:20;;;;;;;;;;;18.00;57.10;;;;;;486917;245;978;-76
2022/05/12 02:46:21;;;;;;;;;;;18.00;57.20;;;;;;486969;245;1226;-76
2022/05/12 02:48:22;;;;;;;;;;;18.00;57.20;;;;;;486886;245;1051;-76
2022/05/12 02:50:24;;;;;;;;;;;18.00;57.20;;;;;;486927;245;987;-76
2022/05/12 02:52:25;;;;;;;;;;;18.00;57.20;;;;;;486930;245;1071;-76
2022/05/12 02:54:26;;;;;;;;;;;18.00;57.20;;;;;;486964;245;1065;-77
2022/05/12 02:56:28;;;;;;;;;;;18.00;57.20;;;;;;486910;245;2199;-77
2022/05/12 02:58:29;;;;;;;;;;;18.00;57.20;;;;;;486958;245;1112;-76
2022/05/12 03:00:31;;;;;;;;;;;18.00;57.30;;;;;;487026;245;1141;-76
2022/05/12 03:02:32;;;;;;;;;;;18.00;57.30;;;;;;487085;245;1173;-76
2022/05/12 03:04:33;;;;;;;;;;;18.00;57.30;;;;;;486978;245;1147;-76
2022/05/12 03:06:35;;;;;;;;;;;17.90;57.30;;;;;;486991;245;1384;-76
2022/05/12 03:08:36;;;;;;;;;;;17.90;57.30;;;;;;486980;245;1121;-76
2022/05/12 03:10:37;;;;;;;;;;;17.90;57.40;;;;;;486846;245;1123;-76
2022/05/12 03:12:39;;;;;;;;;;;17.90;57.40;;;;;;487035;245;1210;-77
2022/05/12 03:14:40;;;;;;;;;;;17.90;57.40;;;;;;487014;245;1184;-76
2022/05/12 03:16:42;;;;;;;;;;;17.90;57.50;;;;;;486871;245;2189;-76
2022/05/12 03:18:43;;;;;;;;;;;17.90;57.60;;;;;;487039;245;1164;-77
2022/05/12 03:20:44;;;;;;;;;;;17.90;57.70;;;;;;486910;243;1180;-76
2022/05/12 03:22:46;;;;;;;;;;;17.80;57.60;;;;;;487012;245;1147;-76
2022/05/12 03:24:47;;;;;;;;;;;17.90;57.70;;;;;;486896;245;1336;-77
2022/05/12 03:26:49;;;;;;;;;;;17.80;57.60;;;;;;486845;245;1160;-76
2022/05/12 03:28:50;;;;;;;;;;;17.80;57.60;;;;;;486892;245;1184;-76
2022/05/12 03:30:51;;;;;;;;;;;17.80;57.60;;;;;;487014;243;1154;-76
2022/05/12 03:32:52;;;;;;;;;;;17.80;57.70;;;;;;486977;245;1162;-76
2022/05/12 03:34:54;;;;;;;;;;;17.90;57.70;;;;;;486935;245;1278;-76
2022/05/12 03:36:56;;;;;;;;;;;17.80;57.70;;;;;;486846;245;2238;-76
2022/05/12 03:38:56;;;;;;;;;;;17.80;57.80;;;;;;486993;245;1486;-76
2022/05/12 03:40:58;;;;;;;;;;;17.80;57.80;;;;;;486895;245;1149;-76
2022/05/12 03:42:59;;;;;;;;;;;17.80;57.90;;;;;;487068;245;1106;-76
2022/05/12 03:45:00;;;;;;;;;;;17.80;58.00;;;;;;487000;245;1091;-76
2022/05/12 03:47:02;;;;;;;;;;;17.80;58.00;;;;;;486936;245;1121;-77
2022/05/12 03:49:03;;;;;;;;;;;17.80;58.00;;;;;;486867;245;1065;-76
2022/05/12 03:51:04;;;;;;;;;;;17.80;58.00;;;;;;486834;245;1188;-77
2022/05/12 03:53:06;;;;;;;;;;;17.80;58.10;;;;;;486840;245;1138;-76
2022/05/12 03:55:07;;;;;;;;;;;17.80;58.10;;;;;;486922;245;1097;-76
2022/05/12 03:57:09;;;;;;;;;;;17.70;58.20;;;;;;486819;245;2194;-76
2022/05/12 03:59:10;;;;;;;;;;;17.70;58.30;;;;;;486953;245;969;-76
2022/05/12 04:01:11;;;;;;;;;;;17.70;58.30;;;;;;487008;245;1182;-76
2022/05/12 04:03:13;;;;;;;;;;;17.70;58.30;;;;;;486956;245;1076;-78
2022/05/12 04:05:14;;;;;;;;;;;17.70;58.40;;;;;;487030;245;1075;-79
2022/05/12 04:07:15;;;;;;;;;;;17.70;58.40;;;;;;487052;245;1017;-79
2022/05/12 04:09:16;;;;;;;;;;;17.70;58.40;;;;;;487007;245;1092;-79
2022/05/12 04:11:18;;;;;;;;;;;17.70;58.50;;;;;;487022;243;1234;-79
2022/05/12 04:13:19;;;;;;;;;;;17.70;58.50;;;;;;487131;245;1082;-80
2022/05/12 04:15:20;;;;;;;;;;;17.70;58.50;;;;;;486882;245;1151;-79
2022/05/12 04:17:22;;;;;;;;;;;17.60;58.50;;;;;;486866;245;2193;-79
2022/05/12 04:19:24;;;;;;;;;;;17.60;58.50;;;;;;487014;245;1111;-79
2022/05/12 04:21:24;;;;;;;;;;;17.60;58.60;;;;;;486974;245;1394;-79
2022/05/12 04:23:26;;;;;;;;;;;17.60;58.60;;;;;;487017;245;1116;-78
2022/05/12 04:25:27;;;;;;;;;;;17.60;58.70;;;;;;486994;245;1161;-78
2022/05/12 04:27:28;;;;;;;;;;;17.70;58.70;;;;;;486963;245;1112;-79
2022/05/12 04:29:30;;;;;;;;;;;17.60;58.70;;;;;;486858;245;1234;-79
2022/05/12 04:31:31;;;;;;;;;;;17.60;58.70;;;;;;486895;245;1229;-79
2022/05/12 04:35:52;;;;;;;;;;;17.60;58.80;;;;;;486848;245;1156;-79
2022/05/12 04:37:53;;;;;;;;;;;17.60;58.80;;;;;;486845;245;2112;-79
2022/05/12 04:39:54;;;;;;;;;;;17.60;58.80;;;;;;486932;245;1143;-79
2022/05/12 04:41:56;;;;;;;;;;;17.60;58.80;;;;;;486923;245;1149;-78
2022/05/12 04:43:58;;;;;;;;;;;17.60;58.80;;;;;;486834;245;1092;-78
2022/05/12 04:45:58;;;;;;;;;;;17.60;58.80;;;;;;486610;245;1451;-78
2022/05/12 04:47:59;;;;;;;;;;;17.60;58.80;;;;;;486750;245;1181;-78
2022/05/12 04:50:01;;;;;;;;;;;17.60;58.90;;;;;;486750;245;1126;-78
2022/05/12 04:52:02;;;;;;;;;;;17.50;58.90;;;;;;486811;245;1212;-78
2022/05/12 04:54:06;;;;;;;;;;;17.60;59.00;;;;;;486836;245;1193;-78
2022/05/12 04:56:05;;;;;;;;;;;17.50;59.00;;;;;;486647;245;1410;-78
2022/05/12 04:58:06;;;;;;;;;;;17.60;59.00;;;;;;486879;245;2185;-78
2022/05/12 05:00:07;;;;;;;;;;;17.60;59.00;;;;;;486737;245;1107;-78
2022/05/12 05:02:09;;;;;;;;;;;17.50;59.00;;;;;;486775;245;1132;-78
2022/05/12 05:04:10;;;;;;;;;;;17.50;59.00;;;;;;486805;245;1213;-78
2022/05/12 05:06:11;;;;;;;;;;;17.50;59.10;;;;;;486827;245;1436;-79
2022/05/12 05:08:13;;;;;;;;;;;17.50;59.10;;;;;;486858;245;1181;-78
2022/05/12 05:10:14;;;;;;;;;;;17.60;59.20;;;;;;486923;245;1143;-79
2022/05/12 05:12:15;;;;;;;;;;;17.60;59.20;;;;;;486847;245;1117;-79
2022/05/12 05:14:17;;;;;;;;;;;17.50;59.20;;;;;;486849;245;1272;-79
2022/05/12 05:16:18;;;;;;;;;;;17.50;59.20;;;;;;486732;245;1105;-79
2022/05/12 05:18:19;;;;;;;;;;;17.50;59.30;;;;;;486810;245;2206;-79
2022/05/12 05:20:20;;;;;;;;;;;17.50;59.30;;;;;;486845;245;1161;-78
2022/05/12 05:22:22;;;;;;;;;;;17.50;59.30;;;;;;486847;245;1178;-78
2022/05/12 05:24:24;;;;;;;;;;;17.50;59.30;;;;;;486889;245;1103;-79
2022/05/12 05:26:25;;;;;;;;;;;17.50;59.30;;;;;;486792;245;1145;-79
2022/05/12 05:28:26;;;;;;;;;;;17.60;59.30;;;;;;486831;245;1099;-79
2022/05/12 05:30:27;;;;;;;;;;;17.60;59.10;;;;;;486763;245;1072;-79
2022/05/12 05:32:29;;;;;;;;;;;17.60;59.10;;;;;;486788;245;1160;-78
2022/05/12 05:34:30;;;;;;;;;;;17.60;59.10;;;;;;486778;245;1168;-79
2022/05/12 05:36:31;;;;;;;;;;;17.60;59.10;;;;;;486694;245;1140;-79
2022/05/12 05:38:33;;;;;;;;;;;17.70;59.10;;;;;;486801;245;2194;-79
2022/05/12 05:40:34;;;;;;;;;;;18.00;58.40;;;;;;486747;245;1071;-78
2022/05/12 05:42:38;;;;;;;;;;;18.10;57.80;;;;;;486727;243;1361;-79
2022/05/12 05:44:37;;;;;;;;;;;18.10;57.80;;;;;;486646;245;1391;-79
2022/05/12 05:46:38;;;;;;;;;;;18.00;58.10;;;;;;486781;245;1146;-78
2022/05/12 05:48:39;;;;;;;;;;;17.90;58.40;;;;;;486787;245;1130;-78
2022/05/12 05:55:19;;;;;;;;;;;17.70;59.10;;;;;;486720;245;1129;-78
2022/05/12 05:57:21;;;;;;;;;;;17.60;59.30;;;;;;486641;245;1224;-79
2022/05/12 05:59:22;;;;;;;;;;;17.60;59.40;;;;;;486756;245;2185;-79
2022/05/12 06:01:24;;;;;;;;;;;17.60;59.60;;;;;;486757;245;1254;-78
2022/05/12 06:03:25;;;;;;;;;;;17.50;59.80;;;;;;486821;244;1148;-78
2022/05/12 06:05:27;;;;;;;;;;;17.50;59.90;;;;;;486428;245;1159;-65
2022/05/12 06:07:27;;;;;;;;;;;17.50;60.60;;;;;;486363;245;2356;-64
2022/05/12 06:09:29;;;;;;;;;;;17.60;60.20;;;;;;486392;245;1177;-68
2022/05/12 06:11:30;;;;;;;;;;;18.40;58.10;;;;;;486273;245;1206;-64
2022/05/12 06:13:32;;;;;;;;;;;19.30;55.30;;;;;;486795;245;1234;-76
2022/05/12 06:15:34;;;;;;;;;;;20.10;53.30;;;;;;486743;245;1163;-77
2022/05/12 06:17:34;;;;;;;;;;;20.70;51.80;;;;;;486805;245;1376;-77
2022/05/12 06:19:35;;;;;;;;;;;21.20;50.80;;;;;;486871;245;1262;-77
2022/05/12 06:21:37;;;;;;;;;;;21.50;49.90;;;;;;486597;245;1155;-77
2022/05/12 06:23:38;;;;;;;;;;;21.90;49.10;;;;;;486912;245;1169;-78
2022/05/12 06:25:39;;;;;;;;;;;22.20;48.40;;;;;;486583;245;1150;-77
2022/05/12 06:27:41;;;;;;;;;;;22.50;47.80;;;;;;486566;245;1478;-77
2022/05/12 06:29:44;;;;;;;;;;;22.70;47.40;;;;;;486855;245;1128;-78
2022/05/12 06:31:43;;;;;;;;;;;23.00;46.90;;;;;;486549;245;1435;-77
2022/05/12 06:33:45;;;;;;;;;;;23.10;46.60;;;;;;486765;245;1167;-77
2022/05/12 06:35:47;;;;;;;;;;;23.30;46.20;;;;;;486494;245;1154;-78
2022/05/12 06:37:47;;;;;;;;;;;23.50;45.80;;;;;;486575;245;2128;-78
2022/05/12 06:39:49;;;;;;;;;;;24.00;52.20;;;;;;486620;245;1152;-78
2022/05/12 06:41:50;;;;;;;;;;;24.40;51.20;;;;;;486626;245;1171;-75
2022/05/12 06:43:52;;;;;;;;;;;24.80;49.70;;;;;;486642;245;1319;-77
2022/05/12 06:45:55;;;;;;;;;;;25.10;48.40;;;;;;486565;245;1350;-77
2022/05/12 06:47:55;;;;;;;;;;;25.40;47.30;;;;;;486529;245;1312;-75
2022/05/12 06:49:57;;;;;;;;;;;25.70;45.90;;;;;;486531;245;1155;-75
2022/05/12 06:51:57;;;;;;;;;;;26.00;44.80;;;;;;486326;245;1401;-75
2022/05/12 06:53:59;;;;;;;;;;;26.20;44.00;;;;;;486416;245;1179;-77
2022/05/12 06:56:00;;;;;;;;;;;26.50;43.30;;;;;;486382;245;1205;-77
2022/05/12 06:58:01;;;;;;;;;;;26.70;42.40;;;;;;486438;245;2181;-76
2022/05/12 07:00:02;;;;;;;;;;;26.90;41.50;;;;;;486393;245;1207;-75
2022/05/12 07:02:04;;;;;;;;;;;27.10;40.80;;;;;;486432;245;1310;-76
2022/05/12 07:04:05;;;;;;;;;;;27.30;40.40;;;;;;486744;243;1327;-76
2022/05/12 07:06:06;;;;;;;;;;;27.40;39.90;;;;;;486277;245;1170;-76
2022/05/12 07:08:08;;;;;;;;;;;27.50;39.50;;;;;;486400;245;1126;-77
2022/05/12 07:10:09;;;;;;;;;;;27.70;39.10;;;;;;486590;245;1646;-76
2022/05/12 07:12:12;;;;;;;;;;;27.90;38.70;;;;;;486570;245;1341;-77
2022/05/12 07:14:14;;;;;;;;;;;28.00;38.50;;;;;;486349;245;1324;-77
2022/05/12 07:16:14;;;;;;;;;;;28.10;38.20;;;;;;486377;245;1401;-77
2022/05/12 07:18:15;;;;;;;;;;;28.20;37.90;;;;;;486871;245;2205;-76
2022/05/12 07:27:14;;;;;;;;;;;28.70;37.30;;;;;;486555;245;1150;-77
2022/05/12 07:29:15;;;;;;;;;;;28.80;37.10;;;;;;486278;245;1128;-77
2022/05/12 07:31:17;;;;;;;;;;;28.90;36.90;;;;;;486409;245;1112;-74
2022/05/12 07:33:18;;;;;;;;;;;29.10;36.60;;;;;;486428;245;1229;-76
2022/05/12 07:35:19;;;;;;;;;;;29.30;36.20;;;;;;486330;245;1183;-76
2022/05/12 07:37:21;;;;;;;;;;;29.50;35.90;;;;;;486247;245;1194;-76
2022/05/12 07:39:25;;;;;;;;;;;29.60;35.60;;;;;;486247;245;2186;-76
2022/05/12 07:41:24;;;;;;;;;;;29.70;35.40;;;;;;486308;245;1327;-76
2022/05/12 07:43:25;;;;;;;;;;;29.80;35.20;;;;;;486495;245;1070;-76
2022/05/12 07:45:27;;;;;;;;;;;30.00;34.90;;;;;;486424;245;1046;-76
2022/05/12 07:47:28;;;;;;;;;;;30.10;34.70;;;;;;486407;245;1293;-76
2022/05/12 07:49:31;;;;;;;;;;;30.20;34.70;;;;;;486408;245;1151;-76
2022/05/12 07:51:30;;;;;;;;;;;30.20;34.40;;;;;;486235;245;1410;-76
2022/05/12 07:53:32;;;;;;;;;;;30.20;34.20;;;;;;486560;245;1311;-76
2022/05/12 07:55:33;;;;;;;;;;;30.30;34.10;;;;;;486272;245;1183;-76
2022/05/12 07:57:35;;;;;;;;;;;30.30;34.00;;;;;;486682;245;1070;-76
2022/05/12 07:59:37;;;;;;;;;;;30.40;33.90;;;;;;486565;245;2202;-76
2022/05/12 08:01:38;;;;;;;;;;;30.50;33.90;;;;;;486639;245;1261;-76
2022/05/12 08:03:39;;;;;;;;;;;30.50;33.90;;;;;;486612;245;1082;-67
2022/05/12 08:05:41;;;;;;;;;;;30.50;33.90;;;;;;486246;245;1228;-75
2022/05/12 08:07:43;;;;;;;;;;;30.30;33.90;;;;;;486660;245;1429;-76
2022/05/12 08:09:45;;;;;;;;;;;30.30;34.10;;;;;;486484;245;2327;-74
2022/05/12 08:11:46;;;;;;;;;;;30.30;34.20;;;;;;487170;245;1696;-78
2022/05/12 08:13:48;;;;;;;;;;;30.40;34.10;;;;;;487066;245;1121;-77
2022/05/12 08:15:49;;;;;;;;;;;30.50;33.80;;;;;;487044;245;1361;-77
2022/05/12 08:17:50;;;;;;;;;;;30.60;33.80;;;;;;487014;245;1345;-77
2022/05/12 08:19:52;;;;;;;;;;;30.70;33.70;;;;;;486993;245;2104;-77
2022/05/12 08:21:54;;;;;;;;;;;30.70;33.50;;;;;;487096;245;1161;-77
2022/05/12 08:23:54;;;;;;;;;;;30.70;33.50;;;;;;486810;245;1292;-77
2022/05/12 08:25:56;;;;;;;;;;;30.70;33.40;;;;;;486973;245;1194;-77
2022/05/12 08:27:57;;;;;;;;;;;30.80;33.30;;;;;;486794;245;1106;-77
2022/05/12 08:29:58;;;;;;;;;;;30.90;33.20;;;;;;486967;245;1140;-77
2022/05/12 08:32:00;;;;;;;;;;;31.00;33.20;;;;;;486886;245;1304;-77
2022/05/12 08:34:01;;;;;;;;;;;31.00;33.10;;;;;;486856;245;1291;-77
2022/05/12 08:36:02;;;;;;;;;;;31.00;33.00;;;;;;486979;245;1207;-77
2022/05/12 08:38:04;;;;;;;;;;;31.10;33.00;;;;;;486989;245;1119;-77
2022/05/12 08:40:05;;;;;;;;;;;31.10;33.20;;;;;;487008;245;2163;-77
2022/05/12 08:42:06;;;;;;;;;;;31.10;33.10;;;;;;486968;245;1174;-77
2022/05/12 08:44:08;;;;;;;;;;;31.20;33.00;;;;;;487030;245;1218;-77
2022/05/12 08:46:09;;;;;;;;;;;31.30;32.90;;;;;;487007;245;1190;-78
2022/05/12 08:48:10;;;;;;;;;;;31.40;32.80;;;;;;486980;245;1336;-77
2022/05/12 08:50:11;;;;;;;;;;;31.40;32.60;;;;;;486872;243;1243;-77
2022/05/12 08:52:13;;;;;;;;;;;31.40;33.00;;;;;;486991;245;1187;-78
2022/05/12 08:54:14;;;;;;;;;;;31.40;32.80;;;;;;487066;245;1161;-77
2022/05/12 08:56:15;;;;;;;;;;;31.50;32.70;;;;;;486826;245;1120;-77
2022/05/12 08:58:17;;;;;;;;;;;31.50;32.80;;;;;;487078;245;1054;-77
2022/05/12 09:00:18;;;;;;;;;;;31.50;32.80;;;;;;486967;245;2123;-77
2022/05/12 09:02:19;;;;;;;;;;;31.60;32.70;;;;;;487033;245;1165;-77
2022/05/12 09:04:21;;;;;;;;;;;31.60;32.70;;;;;;487041;245;1292;-77
2022/05/12 09:06:22;;;;;;;;;;;31.60;32.60;;;;;;487019;245;1324;-77
2022/05/12 09:08:24;;;;;;;;;;;31.70;32.60;;;;;;486912;245;1250;-77
2022/05/12 09:10:25;;;;;;;;;;;31.70;32.40;;;;;;487123;245;1218;-77
2022/05/12 09:12:26;;;;;;;;;;;31.80;32.40;;;;;;487079;245;1081;-77
2022/05/12 09:14:27;;;;;;;;;;;31.80;32.40;;;;;;487075;245;1127;-77
2022/05/12 09:16:29;;;;;;;;;;;31.80;32.40;;;;;;487007;245;1180;-77
2022/05/12 09:18:31;;;;;;;;;;;31.90;32.50;;;;;;486852;245;1421;-77
2022/05/12 09:20:31;;;;;;;;;;;31.90;32.40;;;;;;486657;243;2166;-77
2022/05/12 09:22:33;;;;;;;;;;;31.90;32.40;;;;;;486495;245;1462;-77
2022/05/12 09:24:34;;;;;;;;;;;31.90;32.30;;;;;;486706;245;1045;-77
2022/05/12 09:26:35;;;;;;;;;;;31.90;32.30;;;;;;486997;245;1133;-77
2022/05/12 09:28:37;;;;;;;;;;;32.00;32.30;;;;;;487170;245;1424;-77
2022/05/12 09:30:38;;;;;;;;;;;32.10;32.40;;;;;;486790;245;1077;-77
2022/05/12 09:32:40;;;;;;;;;;;32.00;32.30;;;;;;486915;245;1150;-77
2022/05/12 09:34:42;;;;;;;;;;;32.10;32.30;;;;;;486836;245;1376;-77
2022/05/12 09:36:42;;;;;;;;;;;32.10;32.20;;;;;;486827;245;1740;-77
2022/05/12 09:38:44;;;;;;;;;;;32.10;32.20;;;;;;486979;245;1135;-77
2022/05/12 09:40:45;;;;;;;;;;;32.10;32.50;;;;;;487124;245;2193;-77
2022/05/12 09:42:46;;;;;;;;;;;32.00;32.50;;;;;;487218;245;1284;-77
2022/05/12 09:44:48;;;;;;;;;;;32.00;32.40;;;;;;487126;245;1131;-77
2022/05/12 09:46:49;;;;;;;;;;;32.10;32.50;;;;;;487119;245;1190;-77
2022/05/12 09:48:50;;;;;;;;;;;32.10;32.40;;;;;;487074;245;997;-77
2022/05/12 09:50:53;;;;;;;;;;;32.20;32.50;;;;;;487039;245;1236;-77
2022/05/12 09:52:53;;;;;;;;;;;32.20;32.30;;;;;;486973;245;2224;-77
2022/05/12 09:54:54;;;;;;;;;;;32.20;32.10;;;;;;487197;245;1020;-77
2022/05/12 09:56:56;;;;;;;;;;;32.20;32.20;;;;;;487262;245;1155;-77
2022/05/12 09:58:57;;;;;;;;;;;32.10;32.30;;;;;;487249;245;2175;-77
2022/05/12 10:00:58;;;;;;;;;;;32.20;32.40;;;;;;487155;245;1706;-77
2022/05/12 10:07:54;;;;;;;;;;;32.20;32.50;;;;;;487075;245;1218;-77
2022/05/12 10:09:56;;;;;;;;;;;32.30;32.40;;;;;;486802;245;1163;-77
2022/05/12 10:11:57;;;;;;;;;;;32.20;32.50;;;;;;487043;245;1017;-77
2022/05/12 10:13:58;;;;;;;;;;;32.20;32.40;;;;;;487055;245;1074;-77
2022/05/12 10:16:00;;;;;;;;;;;32.30;32.40;;;;;;487138;245;1253;-77
2022/05/12 10:18:01;;;;;;;;;;;32.20;32.40;;;;;;487217;245;1119;-77
2022/05/12 10:20:02;;;;;;;;;;;32.20;32.50;;;;;;487092;245;2170;-77
2022/05/12 10:22:04;;;;;;;;;;;32.30;32.50;;;;;;487044;245;1345;-77
2022/05/12 10:24:05;;;;;;;;;;;32.30;32.40;;;;;;486931;245;1115;-77
2022/05/12 10:26:06;;;;;;;;;;;32.40;32.40;;;;;;486898;245;1308;-77
2022/05/12 10:28:08;;;;;;;;;;;32.60;32.10;;;;;;486923;245;1295;-77
2022/05/12 10:30:09;;;;;;;;;;;32.60;31.90;;;;;;486959;245;1178;-77
2022/05/12 10:32:10;;;;;;;;;;;32.60;32.10;;;;;;486872;245;1174;-77
2022/05/12 10:34:12;;;;;;;;;;;32.70;32.00;;;;;;486806;245;1161;-77
2022/05/12 10:36:13;;;;;;;;;;;32.80;32.00;;;;;;487005;245;1229;-77
2022/05/12 10:38:14;;;;;;;;;;;32.70;32.10;;;;;;487080;245;1210;-77
2022/05/12 10:40:16;;;;;;;;;;;32.60;32.30;;;;;;487053;245;2182;-78
2022/05/12 10:42:17;;;;;;;;;;;32.70;32.30;;;;;;486902;245;1197;-77
2022/05/12 10:44:18;;;;;;;;;;;32.70;32.20;;;;;;486941;245;1128;-77
2022/05/12 10:46:20;;;;;;;;;;;32.80;31.90;;;;;;487073;245;1130;-77
2022/05/12 10:48:21;;;;;;;;;;;32.80;32.00;;;;;;487116;245;1074;-77
2022/05/12 10:50:22;;;;;;;;;;;32.80;32.00;;;;;;487015;241;1359;-77
2022/05/12 10:52:24;;;;;;;;;;;32.70;32.10;;;;;;486925;245;1114;-77
2022/05/12 10:54:25;;;;;;;;;;;32.80;32.10;;;;;;487070;245;1218;-77
2022/05/12 10:56:27;;;;;;;;;;;32.70;32.20;;;;;;487115;245;1213;-77
2022/05/12 10:58:29;;;;;;;;;;;32.70;32.20;;;;;;487014;245;1412;-77
2022/05/12 11:00:30;;;;;;;;;;;32.70;32.10;;;;;;487054;245;2187;-77
2022/05/12 11:02:31;;;;;;;;;;;32.70;32.10;;;;;;486882;245;1222;-77
2022/05/12 11:04:32;;;;;;;;;;;32.80;32.20;;;;;;487066;245;1264;-77
2022/05/12 11:06:34;;;;;;;;;;;33.00;32.20;;;;;;486957;245;1221;-78
2022/05/12 11:08:36;;;;;;;;;;;33.10;32.10;;;;;;486992;245;1129;-77
2022/05/12 11:10:36;;;;;;;;;;;33.10;31.90;;;;;;486783;245;1361;-77
2022/05/12 11:12:38;;;;;;;;;;;33.10;31.80;;;;;;486900;245;1404;-77
2022/05/12 11:14:39;;;;;;;;;;;33.10;31.90;;;;;;486862;245;1228;-77
2022/05/12 11:16:40;;;;;;;;;;;33.20;31.90;;;;;;486957;245;1044;-78
2022/05/12 11:18:41;;;;;;;;;;;33.20;32.10;;;;;;486946;245;1205;-77
2022/05/12 11:20:43;;;;;;;;;;;33.20;32.30;;;;;;486904;243;2183;-77
2022/05/12 11:22:44;;;;;;;;;;;33.40;32.20;;;;;;487045;245;1172;-77
2022/05/12 11:24:46;;;;;;;;;;;33.50;32.10;;;;;;486969;245;1213;-77
2022/05/12 11:26:47;;;;;;;;;;;33.60;31.80;;;;;;486788;245;1804;-77
2022/05/12 11:31:09;;;;;;;;;;;33.60;31.50;;;;;;487139;245;1373;-77
2022/05/12 11:33:10;;;;;;;;;;;33.60;31.60;;;;;;487206;245;1532;-77
2022/05/12 11:35:11;;;;;;;;;;;33.60;31.50;;;;;;487365;245;1080;-77
2022/05/12 11:37:13;;;;;;;;;;;33.60;31.50;;;;;;487047;243;2245;-77
2022/05/12 11:39:14;;;;;;;;;;;33.80;31.50;;;;;;487025;245;1515;-77
2022/05/12 11:45:59;;;;;;;;;;;33.90;31.70;;;;;;487231;241;2121;-76
2022/05/12 11:48:00;;;;;;;;;;;33.90;31.50;;;;;;487238;245;1557;-77
2022/05/12 11:50:04;;;;;;;;;;;33.90;31.70;;;;;;487226;245;1203;-77
2022/05/12 11:52:05;;;;;;;;;;;33.90;31.50;;;;;;486948;243;2081;-77
2022/05/12 11:54:07;;;;;;;;;;;34.00;31.20;;;;;;487122;245;1179;-77
2022/05/12 11:56:08;;;;;;;;;;;34.00;31.20;;;;;;487060;245;2089;-76
2022/05/12 11:58:12;;;;;;;;;;;34.00;31.50;;;;;;487217;245;1569;-76
2022/05/12 12:00:15;;;;;;;;;;;34.00;31.60;;;;;;487120;245;2209;-77
2022/05/12 12:02:16;;;;;;;;;;;34.00;31.40;;;;;;487151;245;1142;-77
2022/05/12 12:04:19;;;;;;;;;;;34.00;31.30;;;;;;487205;245;1157;-77
2022/05/12 12:06:20;;;;;;;;;;;34.10;31.30;;;;;;487034;245;1909;-77
2022/05/12 12:08:22;;;;;;;;;;;34.10;31.30;;;;;;487095;245;1184;-77
2022/05/12 12:10:23;;;;;;;;;;;34.10;31.20;;;;;;487033;245;2509;-77
2022/05/12 12:12:24;;;;;;;;;;;34.10;31.10;;;;;;487060;245;1479;-77
2022/05/12 12:14:26;;;;;;;;;;;34.20;31.00;;;;;;487043;245;1149;-77
2022/05/12 12:16:28;;;;;;;;;;;34.20;30.90;;;;;;486861;245;1511;-77
2022/05/12 12:18:30;;;;;;;;;;;34.20;31.00;;;;;;486931;243;1982;-77
2022/05/12 12:20:33;;;;;;;;;;;34.30;31.00;;;;;;487205;245;2166;-77
2022/05/12 12:22:35;;;;;;;;;;;34.40;30.80;;;;;;487241;242;2150;-77